Time;durP1;ratioP1;P1;durP2;ratioP2;P2;SDS_P1;SDS_P2;PMS_P1;PMS_P2;Temp;Humidity;BMP_temperature;BMP_pressure;BME280_temperature;BME280_humidity;BME280_pressure;Samples;Min_cycle;Max_cycle;Signal;HPM_P1;HPM_P2
2023/03/02 00:01:55;;;;;;;23.90;16.13;;;3.60;99.90;;;;;;5107315;27;20043;-69
2023/03/02 00:04:23;;;;;;;25.58;16.45;;;3.60;99.90;;;;;;5074496;28;20040;-70
2023/03/02 00:06:53;;;;;;;24.85;16.27;;;3.50;99.90;;;;;;5093838;28;20079;-69
2023/03/02 00:09:19;;;;;;;27.50;16.92;;;3.50;99.90;;;;;;5094248;28;20127;-70
2023/03/02 00:11:45;;;;;;;25.85;17.13;;;3.40;99.90;;;;;;5087294;28;20458;-69
2023/03/02 00:14:11;;;;;;;25.60;16.35;;;3.40;99.90;;;;;;5076607;28;20447;-70
2023/03/02 00:16:36;;;;;;;27.23;16.17;;;3.40;99.90;;;;;;5077469;28;20458;-70
2023/03/02 00:19:02;;;;;;;24.88;15.75;;;3.40;99.90;;;;;;5094181;28;20561;-70
2023/03/02 00:21:27;;;;;;;26.95;15.70;;;3.40;99.90;;;;;;5094182;28;20131;-69
2023/03/02 00:23:53;;;;;;;27.63;18.35;;;3.40;99.90;;;;;;5074426;28;20469;-70
2023/03/02 00:26:19;;;;;;;26.83;16.52;;;3.40;99.90;;;;;;5089669;28;20046;-69
2023/03/02 00:28:45;;;;;;;24.92;16.42;;;3.30;99.90;;;;;;5094170;28;20036;-70
2023/03/02 00:31:10;;;;;;;26.27;16.80;;;3.30;99.90;;;;;;5094036;28;20039;-70
2023/03/02 00:33:36;;;;;;;26.23;16.83;;;3.40;99.90;;;;;;5091509;28;20036;-69
2023/03/02 00:36:02;;;;;;;26.67;16.80;;;3.40;99.90;;;;;;5076388;28;20540;-69
2023/03/02 00:38:28;;;;;;;25.42;15.77;;;3.40;99.90;;;;;;5076338;28;20088;-69
2023/03/02 00:40:55;;;;;;;26.17;16.58;;;3.30;99.90;;;;;;5076688;28;20407;-69
2023/03/02 00:43:26;;;;;;;25.83;16.27;;;3.30;99.90;;;;;;5093859;28;20075;-69
2023/03/02 00:45:52;;;;;;;28.15;17.90;;;3.30;99.90;;;;;;5093849;28;20096;-70
2023/03/02 00:48:17;;;;;;;26.38;17.65;;;3.20;99.90;;;;;;5093780;28;20118;-69
2023/03/02 00:50:43;;;;;;;25.95;17.17;;;3.20;99.90;;;;;;5109986;28;20058;-69
2023/03/02 00:53:09;;;;;;;25.92;17.10;;;3.20;99.90;;;;;;5093850;28;20472;-70
2023/03/02 00:55:36;;;;;;;27.55;18.35;;;3.30;99.90;;;;;;5093617;28;20408;-69
2023/03/02 00:58:02;;;;;;;25.92;16.67;;;3.20;99.90;;;;;;5092861;28;20054;-69
2023/03/02 01:00:29;;;;;;;24.48;16.13;;;3.20;99.90;;;;;;5076538;28;20089;-69
2023/03/02 01:02:55;;;;;;;26.08;16.98;;;3.20;99.90;;;;;;5075353;28;20064;-69
2023/03/02 01:05:20;;;;;;;24.73;15.43;;;3.20;99.90;;;;;;5092399;28;20043;-69
2023/03/02 01:07:46;;;;;;;27.60;16.63;;;3.30;99.90;;;;;;5092222;28;20048;-69
2023/03/02 01:10:12;;;;;;;29.25;17.95;;;3.20;99.90;;;;;;5075730;28;20071;-69
2023/03/02 01:12:38;;;;;;;28.90;16.70;;;3.20;99.90;;;;;;5092509;28;20032;-69
2023/03/02 01:15:05;;;;;;;27.13;16.15;;;3.20;99.90;;;;;;5075618;28;20027;-69
2023/03/02 01:17:31;;;;;;;22.60;14.00;;;3.20;99.90;;;;;;5093151;28;20124;-70
2023/03/02 01:19:56;;;;;;;26.98;17.65;;;3.20;99.90;;;;;;5092626;28;20498;-69
2023/03/02 01:22:22;;;;;;;26.85;17.05;;;3.10;99.90;;;;;;5076053;28;20070;-69
2023/03/02 01:24:48;;;;;;;24.38;14.32;;;3.10;99.90;;;;;;5092994;28;20036;-70
2023/03/02 01:27:14;;;;;;;24.77;14.38;;;3.10;99.90;;;;;;5092934;28;20437;-69
2023/03/02 01:29:40;;;;;;;24.75;15.88;;;3.10;99.90;;;;;;5075955;28;20089;-69
2023/03/02 01:32:06;;;;;;;25.02;14.90;;;3.10;99.90;;;;;;5092120;28;20480;-69
2023/03/02 01:34:31;;;;;;;25.83;16.15;;;3.10;99.90;;;;;;5092865;28;20081;-69
2023/03/02 01:36:57;;;;;;;22.30;14.77;;;3.10;99.90;;;;;;5092009;28;20040;-69
2023/03/02 01:39:23;;;;;;;25.23;14.80;;;3.20;99.90;;;;;;5083266;28;20040;-69
2023/03/02 01:41:50;;;;;;;26.85;16.63;;;3.10;99.90;;;;;;5055776;28;20048;-69
2023/03/02 01:44:34;;;;;;;28.00;16.30;;;3.00;99.90;;;;;;5089824;28;20036;-70
2023/03/02 01:47:12;;;;;;;26.52;16.10;;;3.00;99.90;;;;;;5075062;28;20040;-69
2023/03/02 01:49:42;;;;;;;24.83;15.63;;;3.00;99.90;;;;;;5092407;28;20055;-69
2023/03/02 01:52:09;;;;;;;24.20;15.18;;;3.00;99.90;;;;;;5074699;28;20515;-69
2023/03/02 01:54:35;;;;;;;23.50;15.27;;;3.00;99.90;;;;;;5075690;28;20032;-69
2023/03/02 01:57:03;;;;;;;27.60;15.68;;;3.00;99.90;;;;;;5074769;28;20040;-69
2023/03/02 01:59:31;;;;;;;25.77;17.33;;;3.00;99.90;;;;;;5091685;28;20450;-69
2023/03/02 02:02:00;;;;;;;24.73;15.32;;;3.00;99.90;;;;;;5092649;28;20464;-70
2023/03/02 02:04:29;;;;;;;27.27;15.55;;;3.00;99.90;;;;;;5091647;28;20484;-69
2023/03/02 02:07:00;;;;;;;26.15;16.73;;;3.00;99.90;;;;;;5075483;28;20123;-69
2023/03/02 02:09:28;;;;;;;25.73;14.88;;;3.00;99.90;;;;;;5075243;28;20044;-69
2023/03/02 02:11:54;;;;;;;24.00;15.57;;;3.00;99.90;;;;;;5074339;28;20504;-70
2023/03/02 02:14:20;;;;;;;25.27;14.43;;;3.10;99.90;;;;;;5092155;28;20075;-71
2023/03/02 02:16:47;;;;;;;24.73;15.80;;;3.00;99.90;;;;;;5073002;28;20044;-69
2023/03/02 02:19:45;;;;;;;23.90;15.13;;;3.10;99.90;;;;;;5091883;28;20044;-69
2023/03/02 02:22:13;;;;;;;27.00;15.55;;;3.10;99.90;;;;;;5106640;27;20053;-70
2023/03/02 02:24:46;;;;;;;26.75;16.42;;;3.00;99.90;;;;;;5107140;28;20561;-70
2023/03/02 02:27:13;;;;;;;26.75;16.10;;;3.00;99.90;;;;;;5090305;28;20492;-69
2023/03/02 02:29:47;;;;;;;28.05;16.42;;;2.90;99.90;;;;;;5091816;28;20036;-70
2023/03/02 02:32:16;;;;;;;30.08;17.90;;;3.00;99.90;;;;;;5087376;28;20514;-69
2023/03/02 02:34:48;;;;;;;30.38;16.15;;;3.00;99.90;;;;;;5089675;28;20032;-69
2023/03/02 02:37:23;;;;;;;31.25;18.15;;;3.10;99.90;;;;;;5086086;28;20058;-69
2023/03/02 02:39:50;;;;;;;33.13;19.30;;;2.90;99.90;;;;;;5074219;28;20079;-69
2023/03/02 02:42:26;;;;;;;33.70;18.52;;;2.90;99.90;;;;;;5079965;28;20044;-69
2023/03/02 02:44:56;;;;;;;34.67;19.88;;;2.90;99.90;;;;;;5100399;28;20452;-69
2023/03/02 02:47:22;;;;;;;33.10;18.35;;;2.80;99.90;;;;;;5084868;28;20036;-69
2023/03/02 02:49:51;;;;;;;27.67;17.30;;;2.80;99.90;;;;;;5077361;28;20047;-69
2023/03/02 02:52:19;;;;;;;33.95;18.00;;;2.80;99.90;;;;;;5068219;28;20039;-69
2023/03/02 02:54:47;;;;;;;33.15;18.80;;;2.80;99.90;;;;;;5074593;28;20036;-69
2023/03/02 02:57:16;;;;;;;33.83;18.92;;;2.70;99.90;;;;;;5074000;28;20060;-69
2023/03/02 02:59:48;;;;;;;30.33;16.85;;;2.80;99.90;;;;;;5107109;28;20075;-69
2023/03/02 03:02:21;;;;;;;30.90;18.02;;;2.80;99.90;;;;;;5090981;28;20048;-69
2023/03/02 03:04:47;;;;;;;35.70;19.17;;;2.80;99.90;;;;;;5125228;27;20035;-69
2023/03/02 03:07:21;;;;;;;32.05;18.38;;;2.80;99.90;;;;;;5090972;28;20036;-69
2023/03/02 03:10:12;;;;;;;35.92;20.10;;;2.70;99.90;;;;;;5088203;28;20089;-70
2023/03/02 03:12:38;;;;;;;30.83;18.80;;;2.70;99.90;;;;;;5089651;28;20040;-69
2023/03/02 03:15:06;;;;;;;33.45;18.55;;;2.80;99.90;;;;;;5070103;28;20060;-69
2023/03/02 03:17:32;;;;;;;32.30;18.98;;;2.80;99.90;;;;;;5088799;28;20040;-69
2023/03/02 03:20:05;;;;;;;35.83;20.15;;;2.80;99.90;;;;;;5107734;28;20097;-69
2023/03/02 03:22:33;;;;;;;35.67;20.23;;;2.80;99.90;;;;;;5098665;28;20098;-69
2023/03/02 03:24:59;;;;;;;40.35;22.05;;;2.70;99.90;;;;;;5085310;28;20044;-69
2023/03/02 03:27:25;;;;;;;37.03;20.55;;;2.70;99.90;;;;;;5085954;28;20518;-69
2023/03/02 03:29:50;;;;;;;41.97;22.23;;;2.70;99.90;;;;;;5088900;28;20032;-69
2023/03/02 03:32:17;;;;;;;38.75;21.35;;;2.80;99.90;;;;;;5090292;28;20032;-69
2023/03/02 03:34:43;;;;;;;37.00;20.45;;;2.70;99.90;;;;;;5076118;28;20035;-69
2023/03/02 03:37:10;;;;;;;41.97;21.90;;;2.70;99.90;;;;;;5093530;28;20040;-69
2023/03/02 03:39:36;;;;;;;37.10;20.50;;;2.70;99.90;;;;;;5094161;28;20044;-69
2023/03/02 03:42:02;;;;;;;35.65;20.35;;;2.70;99.90;;;;;;5074657;28;20472;-70
2023/03/02 03:44:28;;;;;;;36.28;19.83;;;2.70;99.90;;;;;;5094066;28;20044;-70
2023/03/02 03:46:54;;;;;;;34.13;19.80;;;2.60;99.90;;;;;;5099554;28;20047;-69
2023/03/02 03:49:20;;;;;;;33.92;19.23;;;2.70;99.90;;;;;;5077272;28;20044;-69
2023/03/02 03:51:46;;;;;;;35.95;19.75;;;2.70;99.90;;;;;;5106944;27;20040;-69
2023/03/02 03:54:12;;;;;;;34.97;19.40;;;2.60;99.90;;;;;;5092476;28;20396;-69
2023/03/02 03:56:46;;;;;;;32.83;18.67;;;2.80;99.90;;;;;;5105384;28;20044;-69
2023/03/02 03:59:14;;;;;;;31.98;16.85;;;2.70;99.90;;;;;;5094101;28;20173;-69
2023/03/02 04:01:46;;;;;;;31.95;16.20;;;2.70;99.90;;;;;;5092856;28;20044;-69
2023/03/02 04:04:33;;;;;;;31.25;16.95;;;2.70;99.90;;;;;;5094237;28;20404;-69
2023/03/02 04:06:58;;;;;;;32.13;16.65;;;2.60;99.90;;;;;;5091699;28;20036;-70
2023/03/02 04:09:25;;;;;;;31.83;17.77;;;2.60;99.90;;;;;;5076956;28;20051;-69
2023/03/02 04:11:52;;;;;;;33.30;17.15;;;2.70;99.90;;;;;;5089388;28;20033;-70
2023/03/02 04:14:19;;;;;;;35.88;18.92;;;2.50;99.90;;;;;;5106896;28;20045;-69
2023/03/02 04:16:45;;;;;;;31.35;17.38;;;2.50;99.90;;;;;;5100186;27;20032;-69
2023/03/02 04:19:11;;;;;;;38.20;18.60;;;2.50;99.90;;;;;;5108490;28;20040;-69
2023/03/02 04:21:39;;;;;;;33.30;18.85;;;2.60;99.90;;;;;;5068829;28;20040;-70
2023/03/02 04:24:06;;;;;;;38.70;18.23;;;2.60;99.90;;;;;;5087200;28;20035;-69
2023/03/02 04:26:32;;;;;;;36.13;17.88;;;2.50;99.90;;;;;;5086364;28;20058;-69
2023/03/02 04:28:58;;;;;;;35.50;19.23;;;2.40;99.90;;;;;;5092228;28;20047;-69
2023/03/02 04:31:24;;;;;;;35.08;18.00;;;2.60;99.90;;;;;;5076278;28;20426;-69
2023/03/02 04:33:49;;;;;;;32.97;18.98;;;2.50;99.90;;;;;;5127389;27;20028;-69
2023/03/02 04:36:15;;;;;;;36.88;20.25;;;2.40;99.90;;;;;;5091981;28;20040;-69
2023/03/02 04:38:40;;;;;;;32.80;16.80;;;2.40;99.90;;;;;;5110817;28;20123;-69
2023/03/02 04:41:06;;;;;;;42.17;20.05;;;2.50;99.90;;;;;;5075448;28;20124;-69
2023/03/02 04:43:32;;;;;;;34.47;17.92;;;2.40;99.90;;;;;;5074861;28;20445;-69
2023/03/02 04:45:57;;;;;;;32.85;18.67;;;2.40;99.90;;;;;;5091322;28;20119;-69
2023/03/02 04:48:24;;;;;;;37.63;20.20;;;2.40;99.90;;;;;;5109296;28;20071;-69
2023/03/02 04:50:50;;;;;;;33.88;17.65;;;2.40;99.90;;;;;;5075492;28;20028;-69
2023/03/02 04:53:15;;;;;;;39.38;19.20;;;2.50;99.90;;;;;;5076232;28;20035;-70
2023/03/02 04:55:41;;;;;;;40.85;19.45;;;2.40;99.90;;;;;;5092734;28;20130;-69
2023/03/02 04:58:07;;;;;;;35.72;18.77;;;2.40;99.90;;;;;;5087956;28;20040;-69
2023/03/02 05:00:34;;;;;;;34.35;18.00;;;2.50;99.90;;;;;;5092038;28;20123;-69
2023/03/02 05:03:01;;;;;;;28.83;16.15;;;2.50;99.90;;;;;;5074760;28;20074;-69
2023/03/02 05:05:27;;;;;;;30.63;16.50;;;2.50;99.90;;;;;;5074874;28;20036;-69
2023/03/02 05:07:53;;;;;;;34.90;17.88;;;2.40;99.90;;;;;;5089922;28;20044;-69
2023/03/02 05:10:20;;;;;;;31.98;17.48;;;2.40;99.90;;;;;;5075557;28;20100;-69
2023/03/02 05:13:01;;;;;;;40.97;19.85;;;2.40;99.90;;;;;;5091696;28;20047;-69
2023/03/02 05:15:32;;;;;;;33.88;18.58;;;2.40;99.90;;;;;;5064801;28;20445;-69
2023/03/02 05:17:58;;;;;;;41.15;18.25;;;2.40;99.90;;;;;;5088364;28;20039;-69
2023/03/02 05:20:26;;;;;;;35.17;18.15;;;2.30;99.90;;;;;;5087722;28;20123;-69
2023/03/02 05:22:58;;;;;;;37.22;18.08;;;2.40;99.90;;;;;;5055975;28;20488;-69
2023/03/02 05:25:25;;;;;;;36.10;18.20;;;2.40;99.90;;;;;;5065101;28;20044;-69
2023/03/02 05:27:51;;;;;;;33.38;17.17;;;2.40;99.90;;;;;;5078588;28;20040;-69
2023/03/02 05:30:18;;;;;;;36.50;17.95;;;2.40;99.90;;;;;;5090635;28;20040;-69
2023/03/02 05:32:44;;;;;;;48.47;19.23;;;2.40;99.90;;;;;;5091670;28;20040;-69
2023/03/02 05:35:11;;;;;;;37.72;18.27;;;2.30;99.90;;;;;;5088768;28;20032;-69
2023/03/02 05:37:40;;;;;;;33.70;16.70;;;2.40;99.90;;;;;;5091356;28;20552;-69
2023/03/02 05:40:10;;;;;;;45.10;18.98;;;2.40;99.90;;;;;;5109117;27;20036;-69
2023/03/02 05:42:36;;;;;;;35.92;18.80;;;2.20;99.90;;;;;;5090495;28;20090;-69
2023/03/02 05:45:04;;;;;;;35.80;17.08;;;2.20;99.90;;;;;;5070375;28;20044;-69
2023/03/02 05:47:29;;;;;;;37.58;18.63;;;2.20;99.90;;;;;;5071333;28;20070;-69
2023/03/02 05:49:55;;;;;;;55.45;18.98;;;2.10;99.90;;;;;;5091772;28;20067;-69
2023/03/02 05:52:20;;;;;;;35.70;18.25;;;2.10;99.90;;;;;;5075001;28;20077;-69
2023/03/02 05:54:46;;;;;;;38.42;17.58;;;2.00;99.90;;;;;;5083145;28;20033;-69
2023/03/02 05:57:11;;;;;;;47.03;18.42;;;2.00;99.90;;;;;;5085332;28;20056;-69
2023/03/02 05:59:37;;;;;;;31.88;16.02;;;2.00;99.90;;;;;;5074405;28;20555;-69
2023/03/02 06:02:03;;;;;;;50.38;18.58;;;2.00;99.90;;;;;;5074213;28;20430;-69
2023/03/02 06:04:28;;;;;;;39.17;17.27;;;2.00;99.90;;;;;;5090438;28;20092;-69
2023/03/02 06:06:54;;;;;;;46.53;17.73;;;2.00;99.90;;;;;;5090241;28;20119;-69
2023/03/02 06:09:21;;;;;;;33.25;18.10;;;1.90;99.90;;;;;;5075572;28;20126;-69
2023/03/02 06:11:47;;;;;;;37.08;16.38;;;1.90;99.90;;;;;;5090398;28;20051;-69
2023/03/02 06:14:12;;;;;;;37.70;16.77;;;1.90;99.90;;;;;;5073354;28;20040;-69
2023/03/02 06:16:38;;;;;;;39.95;17.23;;;1.80;99.90;;;;;;5120259;27;20135;-69
2023/03/02 06:19:04;;;;;;;31.55;16.13;;;1.80;99.90;;;;;;5107792;28;20131;-69
2023/03/02 06:21:29;;;;;;;37.25;18.13;;;1.80;99.90;;;;;;5108290;28;20075;-69
2023/03/02 06:23:55;;;;;;;32.47;16.33;;;1.80;99.90;;;;;;5084670;28;20040;-69
2023/03/02 06:26:21;;;;;;;33.60;17.15;;;1.80;99.90;;;;;;5085580;28;20048;-69
2023/03/02 06:28:46;;;;;;;30.30;14.88;;;1.80;99.90;;;;;;5108341;28;20040;-70
2023/03/02 06:31:12;;;;;;;34.33;16.30;;;1.90;99.90;;;;;;5086017;28;20496;-70
2023/03/02 06:33:37;;;;;;;26.08;13.93;;;1.90;99.90;;;;;;5073750;28;20028;-69
2023/03/02 06:36:03;;;;;;;26.10;14.48;;;1.90;99.90;;;;;;5061596;28;20480;-69
2023/03/02 06:38:29;;;;;;;32.90;15.05;;;1.80;99.90;;;;;;5106801;28;20055;-69
2023/03/02 06:40:54;;;;;;;35.03;16.92;;;1.90;99.90;;;;;;5087265;28;20038;-69
2023/03/02 06:43:20;;;;;;;31.73;15.05;;;1.90;99.90;;;;;;5084934;28;20097;-69
2023/03/02 06:45:45;;;;;;;32.05;17.63;;;2.00;99.90;;;;;;5089738;28;20119;-69
2023/03/02 06:48:11;;;;;;;32.20;16.42;;;1.90;99.90;;;;;;5073578;28;20120;-68
2023/03/02 06:50:37;;;;;;;32.13;15.20;;;1.90;99.90;;;;;;5089401;28;20043;-69
2023/03/02 06:53:03;;;;;;;29.13;15.55;;;1.90;99.90;;;;;;5075156;28;20043;-69
2023/03/02 06:55:29;;;;;;;41.33;16.27;;;2.00;99.90;;;;;;5087569;28;20036;-68
2023/03/02 06:57:54;;;;;;;35.30;14.90;;;1.90;99.90;;;;;;5098589;28;21326;-68
2023/03/02 07:00:25;;;;;;;26.85;15.32;;;1.90;99.90;;;;;;5073521;28;20102;-69
2023/03/02 07:02:51;;;;;;;32.60;16.52;;;1.90;99.90;;;;;;5089741;28;20040;-69
2023/03/02 07:05:18;;;;;;;28.52;14.98;;;1.90;99.90;;;;;;5073187;28;20075;-69
2023/03/02 07:07:43;;;;;;;26.88;16.00;;;1.90;99.90;;;;;;5068592;28;20035;-69
2023/03/02 07:10:12;;;;;;;31.33;16.33;;;2.00;99.90;;;;;;5080139;28;20047;-69
2023/03/02 07:12:38;;;;;;;26.90;15.57;;;2.00;99.90;;;;;;5083646;28;20131;-69
2023/03/02 07:15:09;;;;;;;29.73;15.73;;;2.10;99.90;;;;;;5089425;28;20482;-69
2023/03/02 07:17:36;;;;;;;29.10;16.25;;;2.10;99.90;;;;;;5129077;27;20036;-69
2023/03/02 07:20:04;;;;;;;26.55;14.93;;;2.00;99.90;;;;;;5061139;28;20044;-69
2023/03/02 07:22:30;;;;;;;24.10;14.18;;;2.20;99.90;;;;;;5073569;28;20040;-69
2023/03/02 07:24:55;;;;;;;30.67;16.75;;;2.20;99.90;;;;;;5075145;28;20066;-69
2023/03/02 07:27:21;;;;;;;35.50;17.52;;;2.10;99.90;;;;;;5075511;28;20093;-69
2023/03/02 07:29:47;;;;;;;33.15;16.23;;;2.10;99.90;;;;;;5092167;28;20036;-69
2023/03/02 07:32:12;;;;;;;27.15;15.50;;;2.10;99.90;;;;;;5093740;28;20036;-69
2023/03/02 07:34:38;;;;;;;26.75;15.05;;;2.10;99.90;;;;;;5098107;28;20419;-68
2023/03/02 07:37:04;;;;;;;26.73;14.90;;;2.20;99.90;;;;;;5074528;28;20432;-69
2023/03/02 07:39:30;;;;;;;24.70;14.77;;;2.20;99.90;;;;;;5078990;28;20094;-69
2023/03/02 07:42:00;;;;;;;23.85;14.15;;;2.20;99.90;;;;;;5079415;28;20107;-69
2023/03/02 07:44:26;;;;;;;27.50;14.98;;;2.30;99.90;;;;;;5070967;28;20123;-68
2023/03/02 07:46:52;;;;;;;26.92;15.15;;;2.30;99.90;;;;;;5082487;28;20035;-68
2023/03/02 07:49:17;;;;;;;25.05;15.43;;;2.20;99.90;;;;;;5076571;28;20039;-68
2023/03/02 07:51:43;;;;;;;29.63;16.10;;;2.20;99.90;;;;;;5117308;27;20536;-68
2023/03/02 07:54:09;;;;;;;26.20;15.43;;;2.00;99.90;;;;;;5093694;28;20047;-69
2023/03/02 07:56:34;;;;;;;27.33;15.52;;;2.10;99.90;;;;;;5125682;27;20044;-69
2023/03/02 07:59:00;;;;;;;31.42;17.67;;;2.10;99.90;;;;;;5092876;28;20040;-68
2023/03/02 08:01:26;;;;;;;31.85;18.38;;;2.00;99.90;;;;;;5085748;28;20515;-69
2023/03/02 08:03:52;;;;;;;29.08;17.55;;;2.10;99.90;;;;;;5088134;28;20040;-68
2023/03/02 08:06:18;;;;;;;26.00;15.10;;;2.00;99.90;;;;;;5076805;28;20036;-68
2023/03/02 08:08:44;;;;;;;27.40;15.48;;;2.10;99.90;;;;;;5076082;28;20480;-69
2023/03/02 08:11:12;;;;;;;30.55;17.40;;;2.20;99.90;;;;;;5085417;28;20043;-69
2023/03/02 08:13:38;;;;;;;24.40;12.95;;;2.20;99.90;;;;;;5090022;28;20102;-68
2023/03/02 08:16:06;;;;;;;26.95;15.95;;;2.20;99.90;;;;;;5092401;28;20606;-69
2023/03/02 08:18:32;;;;;;;25.13;15.35;;;2.30;99.90;;;;;;5074826;28;20036;-69
2023/03/02 08:20:58;;;;;;;26.85;15.27;;;2.30;99.90;;;;;;5075093;28;20028;-69
2023/03/02 08:23:24;;;;;;;27.90;16.35;;;2.20;99.90;;;;;;5079333;28;20043;-68
2023/03/02 08:25:52;;;;;;;27.33;15.30;;;2.30;99.90;;;;;;5077944;28;20040;-69
2023/03/02 08:28:18;;;;;;;25.45;15.68;;;2.30;99.90;;;;;;5091756;28;20434;-68
2023/03/02 08:30:43;;;;;;;26.40;16.33;;;2.20;99.90;;;;;;5074446;28;20112;-69
2023/03/02 08:33:09;;;;;;;24.83;14.90;;;2.20;99.90;;;;;;5082966;28;20064;-69
2023/03/02 08:35:34;;;;;;;31.27;17.48;;;2.20;99.90;;;;;;5075487;28;20036;-69
2023/03/02 08:38:00;;;;;;;29.17;15.05;;;2.20;99.90;;;;;;5093230;28;20040;-68
2023/03/02 08:40:26;;;;;;;26.98;15.50;;;2.20;99.90;;;;;;5092986;28;20127;-68
2023/03/02 08:42:56;;;;;;;30.05;16.05;;;2.20;99.90;;;;;;5091987;28;20047;-68
2023/03/02 08:45:25;;;;;;;28.60;15.68;;;2.20;99.90;;;;;;5072958;28;20119;-68
2023/03/02 08:47:53;;;;;;;23.95;14.52;;;2.30;99.90;;;;;;5079993;28;20040;-68
2023/03/02 08:50:19;;;;;;;26.77;16.45;;;2.40;99.90;;;;;;5090313;28;20044;-69
2023/03/02 08:52:45;;;;;;;26.27;15.52;;;2.30;99.90;;;;;;5090914;28;20042;-69
2023/03/02 08:55:11;;;;;;;24.55;14.00;;;2.30;99.90;;;;;;5087395;28;20395;-69
2023/03/02 08:57:37;;;;;;;28.80;15.40;;;2.40;99.90;;;;;;5085147;28;20101;-69
2023/03/02 09:00:07;;;;;;;22.80;13.57;;;2.40;99.90;;;;;;5074494;28;20449;-69
2023/03/02 09:02:33;;;;;;;27.95;15.63;;;2.40;99.90;;;;;;5078553;28;20049;-68
2023/03/02 09:04:58;;;;;;;26.15;15.82;;;2.40;99.90;;;;;;5108335;27;20085;-68
2023/03/02 09:07:24;;;;;;;24.77;14.82;;;2.40;99.90;;;;;;5073767;28;20028;-68
2023/03/02 09:09:49;;;;;;;26.35;15.55;;;2.30;99.90;;;;;;5117987;27;20547;-68
2023/03/02 09:12:15;;;;;;;26.17;15.40;;;2.30;99.90;;;;;;5072946;28;20123;-68
2023/03/02 09:14:40;;;;;;;30.50;15.70;;;2.40;99.90;;;;;;5089339;28;20028;-68
2023/03/02 09:17:06;;;;;;;27.98;16.73;;;2.40;99.90;;;;;;5083838;28;20430;-68
2023/03/02 09:19:40;;;;;;;28.60;16.63;;;2.40;99.90;;;;;;5090659;28;20040;-68
2023/03/02 09:22:07;;;;;;;28.08;15.32;;;2.50;99.90;;;;;;5089987;28;20428;-68
2023/03/02 09:24:33;;;;;;;27.40;16.25;;;2.50;99.90;;;;;;5089556;28;20096;-68
2023/03/02 09:26:58;;;;;;;26.45;15.02;;;2.70;99.90;;;;;;5107862;27;20443;-68
2023/03/02 09:29:24;;;;;;;25.75;14.85;;;2.70;99.90;;;;;;5055903;28;20036;-68
2023/03/02 09:31:50;;;;;;;27.90;15.90;;;2.70;99.90;;;;;;5083298;28;20085;-68
2023/03/02 09:34:15;;;;;;;26.58;15.25;;;2.70;99.90;;;;;;5074699;28;20484;-68
2023/03/02 09:36:41;;;;;;;26.25;15.65;;;2.80;99.90;;;;;;5091762;28;20097;-68
2023/03/02 09:39:11;;;;;;;27.60;16.63;;;2.80;99.90;;;;;;5126322;27;20040;-69
2023/03/02 09:42:14;;;;;;;26.38;14.90;;;2.80;99.90;;;;;;5077417;28;20059;-68
2023/03/02 09:44:49;;;;;;;26.48;15.30;;;2.80;99.90;;;;;;5071650;28;20040;-68
2023/03/02 09:47:28;;;;;;;29.77;16.88;;;2.80;99.90;;;;;;5067725;28;20047;-68
2023/03/02 09:50:23;;;;;;;30.00;16.25;;;2.80;99.90;;;;;;5089909;28;20400;-68
2023/03/02 09:53:16;;;;;;;25.42;14.70;;;2.90;99.90;;;;;;5055184;28;20059;-68
2023/03/02 09:55:44;;;;;;;23.20;13.23;;;3.00;99.90;;;;;;5068959;28;20483;-68
2023/03/02 09:58:19;;;;;;;23.92;13.43;;;2.90;99.90;;;;;;5092356;28;20438;-68
2023/03/02 10:00:45;;;;;;;24.45;14.52;;;3.00;99.90;;;;;;5082996;28;20467;-68
2023/03/02 10:03:15;;;;;;;27.30;15.02;;;3.10;99.90;;;;;;5068881;28;20391;-68
2023/03/02 10:05:44;;;;;;;23.90;14.55;;;3.10;99.90;;;;;;5108008;28;20040;-68
2023/03/02 10:08:24;;;;;;;23.63;14.57;;;3.10;99.90;;;;;;5107675;27;20042;-68
2023/03/02 10:11:06;;;;;;;28.45;15.00;;;3.20;99.90;;;;;;5057636;28;20040;-68
2023/03/02 10:13:54;;;;;;;24.30;13.70;;;3.20;99.90;;;;;;5092097;28;20082;-68
2023/03/02 10:16:45;;;;;;;25.42;14.68;;;3.30;99.90;;;;;;5084657;28;20115;-69
2023/03/02 10:19:26;;;;;;;25.45;14.18;;;3.50;99.90;;;;;;5056538;28;20446;-69
2023/03/02 10:22:03;;;;;;;27.08;15.73;;;3.50;99.90;;;;;;5090320;28;20071;-69
2023/03/02 10:24:38;;;;;;;25.90;14.77;;;3.40;99.90;;;;;;5089507;28;20048;-69
2023/03/02 10:27:31;;;;;;;25.77;14.15;;;3.40;99.90;;;;;;5079602;28;20044;-69
2023/03/02 10:30:13;;;;;;;28.50;15.50;;;3.40;99.90;;;;;;5060002;28;20036;-68
2023/03/02 10:32:47;;;;;;;24.33;12.32;;;3.40;99.90;;;;;;5087425;28;20040;-69
2023/03/02 10:35:20;;;;;;;25.90;15.27;;;3.50;99.90;;;;;;5113672;28;20169;-68
2023/03/02 10:37:46;;;;;;;24.75;14.60;;;3.40;99.90;;;;;;5070815;28;20039;-68
2023/03/02 10:40:36;;;;;;;26.33;15.70;;;3.50;99.90;;;;;;5090701;28;20044;-68
2023/03/02 10:43:04;;;;;;;28.02;15.73;;;3.50;99.90;;;;;;5075008;28;20058;-68
2023/03/02 10:45:31;;;;;;;23.83;14.02;;;3.50;99.90;;;;;;5092484;28;20044;-68
2023/03/02 10:48:05;;;;;;;27.58;14.80;;;3.40;99.90;;;;;;5080667;28;20043;-68
2023/03/02 10:50:31;;;;;;;27.77;15.68;;;3.50;99.90;;;;;;5075307;28;20068;-68
2023/03/02 10:52:58;;;;;;;24.15;13.75;;;3.50;99.90;;;;;;5084517;28;20447;-69
2023/03/02 10:55:24;;;;;;;22.77;12.60;;;3.50;99.90;;;;;;5058862;28;20116;-68
2023/03/02 10:58:05;;;;;;;23.15;13.45;;;3.70;99.90;;;;;;5092719;28;20131;-69
2023/03/02 11:00:32;;;;;;;26.98;14.80;;;3.70;99.90;;;;;;5094065;28;20508;-68
2023/03/02 11:03:04;;;;;;;25.33;14.55;;;3.70;99.90;;;;;;5064429;28;20565;-68
2023/03/02 11:05:36;;;;;;;25.52;13.98;;;3.60;99.90;;;;;;5080364;28;20123;-68
2023/03/02 11:08:07;;;;;;;24.77;14.50;;;3.60;99.90;;;;;;5084398;28;20065;-69
2023/03/02 11:10:35;;;;;;;25.50;13.55;;;3.70;99.90;;;;;;5078086;28;20073;-69
2023/03/02 11:13:14;;;;;;;23.27;12.68;;;3.70;99.90;;;;;;5075889;28;20120;-68
2023/03/02 11:15:46;;;;;;;23.33;13.38;;;3.80;99.90;;;;;;5091847;28;20059;-69
2023/03/02 11:18:26;;;;;;;22.42;13.25;;;3.80;99.90;;;;;;5084876;28;20080;-68
2023/03/02 11:20:56;;;;;;;21.15;12.02;;;3.80;99.90;;;;;;5089682;28;20060;-68
2023/03/02 11:23:31;;;;;;;21.70;12.27;;;3.80;99.90;;;;;;5091033;28;20045;-68
2023/03/02 11:26:03;;;;;;;23.27;13.63;;;3.90;99.90;;;;;;5090250;28;20543;-69
2023/03/02 11:28:58;;;;;;;25.42;13.90;;;3.90;99.90;;;;;;5063676;28;20044;-68
2023/03/02 11:31:35;;;;;;;22.10;12.27;;;3.80;99.90;;;;;;5076620;28;20036;-68
2023/03/02 11:34:19;;;;;;;20.23;11.45;;;3.90;99.90;;;;;;5092343;28;20067;-68
2023/03/02 11:36:57;;;;;;;21.30;11.57;;;4.00;99.90;;;;;;5093098;28;20043;-68
2023/03/02 11:39:35;;;;;;;18.60;10.40;;;4.10;99.90;;;;;;5091953;28;20583;-68
2023/03/02 11:42:00;;;;;;;18.60;9.93;;;4.20;99.90;;;;;;5076954;28;20411;-68
2023/03/02 11:44:27;;;;;;;19.52;10.93;;;4.20;99.90;;;;;;5075978;28;20123;-69
2023/03/02 11:46:59;;;;;;;20.05;11.07;;;4.20;99.90;;;;;;5087148;28;20039;-68
2023/03/02 11:49:36;;;;;;;18.55;10.68;;;4.20;99.90;;;;;;5099171;28;20072;-71
2023/03/02 11:52:02;;;;;;;19.60;10.48;;;4.30;99.90;;;;;;5075353;28;20041;-69
2023/03/02 11:54:37;;;;;;;17.33;9.27;;;4.40;99.90;;;;;;5107369;28;20454;-69
2023/03/02 11:57:03;;;;;;;19.38;11.13;;;4.40;99.90;;;;;;5094329;28;20051;-69
2023/03/02 11:59:30;;;;;;;17.25;8.88;;;4.30;99.90;;;;;;5077049;28;20044;-69
2023/03/02 12:01:58;;;;;;;19.23;10.43;;;4.40;99.90;;;;;;5090475;28;20065;-69
2023/03/02 12:04:36;;;;;;;19.05;10.38;;;4.40;99.90;;;;;;5089692;28;20048;-69
2023/03/02 12:07:21;;;;;;;17.08;9.20;;;4.40;99.90;;;;;;5111524;28;20097;-69
2023/03/02 12:10:01;;;;;;;20.42;10.75;;;4.50;99.90;;;;;;5094525;28;20043;-69
2023/03/02 12:13:11;;;;;;;22.77;11.57;;;4.50;99.90;;;;;;5111023;27;20032;-69
2023/03/02 12:15:40;;;;;;;19.70;9.80;;;4.50;99.90;;;;;;5091436;28;20040;-69
2023/03/02 12:18:21;;;;;;;19.30;11.02;;;4.70;99.90;;;;;;5094392;28;20044;-69
2023/03/02 12:21:17;;;;;;;19.60;11.23;;;4.70;99.90;;;;;;5091971;28;20036;-70
2023/03/02 12:23:42;;;;;;;21.20;11.57;;;4.70;99.90;;;;;;5075754;28;20133;-70
2023/03/02 12:26:20;;;;;;;21.70;11.77;;;4.60;99.90;;;;;;5077363;28;20518;-70
2023/03/02 12:29:21;;;;;;;20.88;11.85;;;4.50;99.90;;;;;;5093306;28;20071;-70
2023/03/02 12:31:50;;;;;;;18.17;9.90;;;4.50;99.90;;;;;;5092229;28;20154;-69
2023/03/02 12:34:24;;;;;;;19.65;11.30;;;4.60;99.90;;;;;;5093359;28;20040;-70
2023/03/02 12:36:54;;;;;;;15.32;7.43;;;4.60;99.90;;;;;;5070038;28;20492;-70
2023/03/02 12:39:42;;;;;;;18.00;9.52;;;4.80;99.90;;;;;;5093414;28;20166;-70
2023/03/02 12:42:28;;;;;;;18.40;9.75;;;4.80;99.90;;;;;;5073519;28;20044;-70
2023/03/02 12:45:18;;;;;;;19.10;10.57;;;4.70;99.90;;;;;;5073918;28;20044;-70
2023/03/02 12:47:47;;;;;;;19.70;10.20;;;4.60;99.90;;;;;;5073749;28;20388;-70
2023/03/02 12:50:20;;;;;;;19.92;11.27;;;4.60;99.90;;;;;;5069638;28;20515;-70